Time;durP1;ratioP1;P1;durP2;ratioP2;P2;SDS_P1;SDS_P2;PMS_P1;PMS_P2;Temp;Humidity;BMP_temperature;BMP_pressure;BME280_temperature;BME280_humidity;BME280_pressure;Samples;Min_cycle;Max_cycle;Signal;HPM_P1;HPM_P2
2023/01/29 00:02:15;;;;;;;42.20;24.35;;;31.90;99.90;;;;;;5015138;28;20025;-66
2023/01/29 00:04:42;;;;;;;32.13;21.55;;;32.20;99.90;;;;;;5020540;28;20028;-67
2023/01/29 00:07:09;;;;;;;36.10;21.15;;;32.40;99.90;;;;;;5014371;28;20018;-67
2023/01/29 00:09:37;;;;;;;31.85;21.38;;;32.30;99.90;;;;;;5020673;28;20135;-67
2023/01/29 00:12:04;;;;;;;29.02;21.65;;;32.10;99.90;;;;;;5014254;28;20021;-67
2023/01/29 00:14:31;;;;;;;30.40;21.00;;;32.00;99.90;;;;;;5011996;28;20049;-67
2023/01/29 00:16:59;;;;;;;34.78;21.88;;;31.90;99.90;;;;;;4995902;28;20536;-67
2023/01/29 00:19:26;;;;;;;34.25;22.20;;;31.70;99.90;;;;;;5009695;28;20034;-65
2023/01/29 00:21:54;;;;;;;32.83;23.20;;;31.40;99.90;;;;;;5008332;28;20391;-64
2023/01/29 00:24:21;;;;;;;33.47;23.48;;;31.40;99.90;;;;;;5017137;28;20030;-67
2023/01/29 00:26:49;;;;;;;32.28;22.10;;;31.30;99.90;;;;;;5009542;28;20458;-66
2023/01/29 00:29:17;;;;;;;34.92;20.52;;;31.60;99.90;;;;;;4994093;28;20030;-66
2023/01/29 00:31:45;;;;;;;32.38;19.90;;;32.20;99.90;;;;;;5011783;28;20021;-66
2023/01/29 00:34:12;;;;;;;32.15;20.98;;;32.30;99.90;;;;;;5011585;28;20033;-66
2023/01/29 00:36:40;;;;;;;29.15;19.27;;;32.90;99.90;;;;;;5022097;28;20028;-68
2023/01/29 00:39:09;;;;;;;32.70;19.50;;;33.10;99.90;;;;;;5012018;28;20048;-67
2023/01/29 00:47:29;;;;;;;28.75;18.90;;;34.20;98.70;;;;;;5013617;28;20045;-68
2023/01/29 00:49:55;;;;;;;28.20;18.20;;;34.50;96.20;;;;;;5011345;28;20081;-67
2023/01/29 00:52:23;;;;;;;27.73;18.35;;;35.00;97.40;;;;;;5011324;28;20383;-68
2023/01/29 00:54:51;;;;;;;28.35;17.00;;;35.20;97.90;;;;;;4993827;28;20485;-66
2023/01/29 00:57:18;;;;;;;35.05;21.42;;;35.40;95.10;;;;;;5011294;28;20117;-65
2023/01/29 00:59:46;;;;;;;28.55;17.75;;;35.10;93.50;;;;;;5018582;28;20398;-66
2023/01/29 01:05:01;;;;;;;29.50;18.33;;;34.80;94.60;;;;;;5031122;28;20433;-65
2023/01/29 01:07:30;;;;;;;28.45;18.27;;;34.60;95.10;;;;;;5024206;28;20053;-66
2023/01/29 01:12:43;;;;;;;32.05;19.27;;;34.30;94.60;;;;;;5010890;28;20042;-66
2023/01/29 01:15:11;;;;;;;33.45;18.65;;;34.50;94.80;;;;;;5009554;28;20017;-66
2023/01/29 01:17:38;;;;;;;34.97;18.38;;;34.40;95.70;;;;;;5019875;28;20040;-66
2023/01/29 01:20:06;;;;;;;30.73;17.15;;;34.50;93.20;;;;;;5028017;28;20120;-66
2023/01/29 01:22:34;;;;;;;33.17;17.90;;;34.70;93.00;;;;;;5029914;28;20017;-66
2023/01/29 01:25:02;;;;;;;28.13;16.60;;;35.10;94.10;;;;;;5029140;28;20383;-66
2023/01/29 01:27:29;;;;;;;26.00;16.50;;;35.10;93.50;;;;;;5009946;28;20029;-66
2023/01/29 01:29:56;;;;;;;29.50;16.48;;;35.70;92.30;;;;;;5031122;28;20075;-67
2023/01/29 01:32:24;;;;;;;23.20;15.95;;;36.00;91.30;;;;;;5030941;28;20382;-67
2023/01/29 01:34:52;;;;;;;26.85;16.50;;;36.20;87.10;;;;;;5030875;28;20483;-66
2023/01/29 01:37:20;;;;;;;22.55;16.85;;;35.90;87.50;;;;;;5020819;28;20037;-66
2023/01/29 01:39:49;;;;;;;23.35;16.67;;;35.60;89.70;;;;;;4991521;28;20065;-66
2023/01/29 01:42:16;;;;;;;23.17;15.70;;;35.90;90.30;;;;;;4991270;28;20446;-66
2023/01/29 01:44:57;;;;;;;27.95;16.70;;;36.10;88.90;;;;;;4992153;28;20027;-66
2023/01/29 01:47:39;;;;;;;26.73;17.60;;;36.70;91.10;;;;;;5011102;28;20037;-66
2023/01/29 01:50:21;;;;;;;27.23;17.58;;;36.80;84.00;;;;;;4994826;28;20313;-66
2023/01/29 01:52:52;;;;;;;27.45;16.33;;;36.60;85.20;;;;;;5021415;28;20366;-66
2023/01/29 01:55:24;;;;;;;32.15;18.42;;;36.50;84.80;;;;;;5010910;28;20033;-67
2023/01/29 01:57:57;;;;;;;30.10;18.92;;;36.40;84.70;;;;;;5026252;28;20478;-66
2023/01/29 02:00:25;;;;;;;;;;;36.20;85.90;;;;;;5016812;28;20942;-66
2023/01/29 02:11:30;;;;;;;29.35;21.33;;;34.90;92.10;;;;;;4991028;28;20045;-68
2023/01/29 02:13:58;;;;;;;27.75;19.85;;;35.00;92.20;;;;;;4898823;28;2697484;-68
2023/01/29 02:16:26;;;;;;;27.38;19.92;;;35.20;91.40;;;;;;5027614;28;20064;-68
2023/01/29 02:18:54;;;;;;;26.55;19.30;;;35.20;91.00;;;;;;5001572;28;20490;-68
2023/01/29 02:21:39;;;;;;;28.85;18.95;;;35.30;90.80;;;;;;4993952;28;20033;-69
2023/01/29 02:24:25;;;;;;;22.65;17.52;;;35.30;91.50;;;;;;5011924;28;20036;-68
2023/01/29 02:27:19;;;;;;;26.58;18.58;;;35.50;89.70;;;;;;5011198;28;20504;-67
2023/01/29 02:29:45;;;;;;;;;;;35.40;88.90;;;;;;5007743;28;20112;-63
2023/01/29 02:32:39;;;;;;;25.15;18.10;;;35.10;88.90;;;;;;5028595;28;19931;-69
2023/01/29 02:35:26;;;;;;;27.02;18.25;;;34.90;90.30;;;;;;4992086;28;20046;-67
2023/01/29 02:38:10;;;;;;;27.92;17.55;;;34.90;90.20;;;;;;5006907;28;20054;-67
2023/01/29 02:40:43;;;;;;;28.00;17.25;;;35.10;89.30;;;;;;5009120;28;20394;-67
2023/01/29 02:43:25;;;;;;;24.00;18.20;;;35.20;90.20;;;;;;5020196;28;20041;-62
2023/01/29 02:46:20;;;;;;;24.17;17.90;;;35.20;89.80;;;;;;4989096;28;20026;-63
2023/01/29 02:48:59;;;;;;;23.02;17.25;;;35.00;89.20;;;;;;5000164;28;20538;-63
2023/01/29 02:51:41;;;;;;;22.67;16.42;;;35.20;90.00;;;;;;5012857;28;20502;-63
2023/01/29 02:54:21;;;;;;;22.58;16.92;;;35.30;87.20;;;;;;5015260;28;20029;-63
2023/01/29 02:57:06;;;;;;;22.92;16.98;;;35.40;87.30;;;;;;5020290;28;20395;-62
2023/01/29 02:59:55;;;;;;;21.35;16.33;;;35.50;86.40;;;;;;5016852;28;20037;-63
2023/01/29 03:03:00;;;;;;;23.60;15.60;;;35.70;87.70;;;;;;5007481;28;20479;-62
2023/01/29 03:05:52;;;;;;;20.33;15.38;;;36.00;82.00;;;;;;4980353;28;20041;-62
2023/01/29 03:08:36;;;;;;;22.25;14.88;;;36.20;82.90;;;;;;5014206;28;20076;-63
2023/01/29 03:11:07;;;;;;;23.23;16.38;;;36.50;79.10;;;;;;5019580;28;20018;-63
2023/01/29 03:13:44;;;;;;;20.60;14.65;;;36.20;77.60;;;;;;5030013;28;20045;-62
2023/01/29 03:16:29;;;;;;;20.13;15.35;;;36.20;78.20;;;;;;5030305;28;20108;-63
2023/01/29 03:19:23;;;;;;;19.70;16.38;;;36.70;76.90;;;;;;5012683;28;20037;-62
2023/01/29 03:21:59;;;;;;;17.65;13.73;;;37.10;78.30;;;;;;5020561;28;20034;-64
2023/01/29 03:33:39;;;;;;;13.25;9.73;;;35.20;76.10;;;;;;5028262;28;20037;-63
2023/01/29 03:36:14;;;;;;;14.52;11.02;;;34.90;74.20;;;;;;5028700;28;20014;-63
2023/01/29 03:38:42;;;;;;;18.30;9.35;;;34.50;75.00;;;;;;4988717;28;20026;-63
2023/01/29 03:41:31;;;;;;;12.02;8.27;;;34.10;72.60;;;;;;4989127;28;20033;-62
2023/01/29 03:44:13;;;;;;;8.18;5.80;;;33.80;71.90;;;;;;4989088;28;20029;-63
2023/01/29 03:47:12;;;;;;;12.18;6.45;;;33.50;69.40;;;;;;5022309;28;20033;-64
2023/01/29 03:49:48;;;;;;;10.20;6.00;;;33.20;71.90;;;;;;5011409;28;20490;-63
2023/01/29 03:52:17;;;;;;;9.80;6.22;;;33.10;73.20;;;;;;5010185;28;20041;-63
2023/01/29 03:54:54;;;;;;;10.18;5.20;;;32.90;72.10;;;;;;5009909;28;20386;-63
2023/01/29 03:57:36;;;;;;;10.13;5.90;;;32.40;80.70;;;;;;5010685;28;20033;-62
2023/01/29 04:00:38;;;;;;;18.05;6.35;;;31.00;94.60;;;;;;5009897;28;20111;-62
2023/01/29 04:03:35;;;;;;;12.38;7.45;;;29.80;99.90;;;;;;5003295;28;20057;-62
2023/01/29 04:06:16;;;;;;;19.63;9.77;;;28.90;99.90;;;;;;5007562;28;20048;-62
2023/01/29 04:08:57;;;;;;;27.38;12.15;;;28.20;99.90;;;;;;5009863;28;20026;-62
2023/01/29 04:11:26;;;;;;;18.98;12.07;;;27.90;99.90;;;;;;4992198;28;20113;-62
2023/01/29 04:13:55;;;;;;;22.63;15.50;;;27.70;99.90;;;;;;5009581;28;20042;-62
2023/01/29 04:16:34;;;;;;;26.98;14.25;;;27.50;99.90;;;;;;5024106;28;20026;-62
2023/01/29 04:19:01;;;;;;;25.52;15.23;;;27.40;99.90;;;;;;5029485;28;20188;-62
2023/01/29 04:21:31;;;;;;;6.20;3.88;;;27.40;99.90;;;;;;5029126;28;20025;-62
2023/01/29 04:23:59;;;;;;;7.53;2.55;;;27.00;99.90;;;;;;5029603;28;20029;-62
2023/01/29 04:26:46;;;;;;;4.75;2.08;;;26.50;99.90;;;;;;5011486;28;20080;-63
2023/01/29 04:29:49;;;;;;;4.80;2.47;;;26.20;99.90;;;;;;5029448;28;20036;-63
2023/01/29 04:32:26;;;;;;;5.93;2.75;;;25.90;99.90;;;;;;5012309;28;20084;-63
2023/01/29 04:34:59;;;;;;;5.97;2.17;;;25.90;99.90;;;;;;5025664;28;20435;-63
2023/01/29 04:38:04;;;;;;;8.43;2.30;;;26.00;99.90;;;;;;5010012;28;20491;-63
2023/01/29 04:41:08;;;;;;;3.45;2.15;;;25.90;99.90;;;;;;5007315;28;20073;-63
2023/01/29 04:43:43;;;;;;;6.15;2.08;;;25.90;99.90;;;;;;5009682;28;20379;-63
2023/01/29 04:46:26;;;;;;;7.57;2.35;;;25.90;99.90;;;;;;5010055;28;20421;-63
2023/01/29 04:49:24;;;;;;;3.25;1.40;;;25.80;99.90;;;;;;5009533;28;20419;-64
2023/01/29 04:52:04;;;;;;;11.23;2.20;;;25.50;99.90;;;;;;5026791;28;20100;-63
2023/01/29 04:54:42;;;;;;;3.85;1.95;;;25.30;99.90;;;;;;5029043;28;20144;-63
2023/01/29 04:57:24;;;;;;;3.22;1.73;;;25.00;99.90;;;;;;5029614;28;20021;-63
2023/01/29 05:00:02;;;;;;;4.85;1.80;;;24.80;99.90;;;;;;5014060;28;20048;-64
2023/01/29 05:02:31;;;;;;;5.30;1.85;;;24.60;99.90;;;;;;4991847;28;20022;-64
2023/01/29 05:04:59;;;;;;;4.72;1.90;;;24.60;99.90;;;;;;5009292;28;20109;-64
2023/01/29 05:07:30;;;;;;;5.85;3.30;;;24.60;99.90;;;;;;5009278;28;20049;-64
2023/01/29 05:09:58;;;;;;;5.45;2.40;;;24.60;99.90;;;;;;5007063;28;20029;-65
2023/01/29 05:12:28;;;;;;;6.35;2.20;;;24.60;99.90;;;;;;5010287;28;20052;-66
2023/01/29 05:15:00;;;;;;;6.05;2.13;;;24.50;99.90;;;;;;5018579;28;20034;-67
2023/01/29 05:17:27;;;;;;;4.50;2.08;;;24.40;99.90;;;;;;5021560;28;20038;-67
2023/01/29 05:19:56;;;;;;;9.75;3.70;;;24.40;99.90;;;;;;5017298;28;20029;-67
2023/01/29 05:22:23;;;;;;;9.85;3.78;;;24.30;99.90;;;;;;5025680;28;20029;-66
2023/01/29 05:24:51;;;;;;;8.50;4.05;;;24.30;99.90;;;;;;5009352;28;20033;-66
2023/01/29 05:30:12;;;;;;;7.40;2.83;;;24.20;99.90;;;;;;5017546;28;20035;-67
2023/01/29 05:32:40;;;;;;;6.30;3.20;;;24.20;99.90;;;;;;5006767;28;20747;-66
2023/01/29 05:35:07;;;;;;;7.50;3.17;;;24.20;99.90;;;;;;5016954;28;20021;-66
2023/01/29 05:37:35;;;;;;;10.18;2.92;;;24.20;99.90;;;;;;5001902;28;20029;-67
2023/01/29 05:40:02;;;;;;;6.20;2.83;;;24.20;99.90;;;;;;5025755;28;20048;-67
2023/01/29 05:42:30;;;;;;;6.78;3.10;;;24.20;99.90;;;;;;5027831;28;20031;-66
2023/01/29 05:44:57;;;;;;;10.57;3.47;;;24.20;99.90;;;;;;5004660;28;20052;-67
2023/01/29 05:47:24;;;;;;;6.07;3.13;;;24.20;99.90;;;;;;5024667;28;20099;-67
2023/01/29 05:49:52;;;;;;;5.63;3.30;;;24.20;99.90;;;;;;5015920;28;20398;-67
2023/01/29 05:52:19;;;;;;;8.25;3.38;;;24.30;99.90;;;;;;5023652;28;20080;-66
2023/01/29 05:54:47;;;;;;;8.48;3.97;;;24.30;99.90;;;;;;5023979;28;20025;-66
2023/01/29 05:57:15;;;;;;;7.40;4.68;;;24.30;99.90;;;;;;5018690;28;20087;-66
2023/01/29 05:59:42;;;;;;;10.90;4.20;;;24.30;99.90;;;;;;5015240;28;20116;-65
2023/01/29 06:02:10;;;;;;;7.60;4.22;;;24.30;99.90;;;;;;5011998;28;20025;-66
2023/01/29 06:04:37;;;;;;;7.55;3.85;;;24.20;99.90;;;;;;5012114;28;20052;-66
2023/01/29 06:07:04;;;;;;;12.32;5.20;;;24.20;99.90;;;;;;5012143;28;20049;-66
2023/01/29 06:09:32;;;;;;;9.52;4.53;;;24.20;99.90;;;;;;5016494;28;20638;-67
2023/01/29 06:11:59;;;;;;;9.88;5.18;;;24.10;99.90;;;;;;5011798;28;20018;-66
2023/01/29 06:14:26;;;;;;;14.10;4.95;;;24.10;99.90;;;;;;5012830;28;20054;-66
2023/01/29 06:16:54;;;;;;;10.48;5.10;;;24.20;99.90;;;;;;5025972;28;20022;-66
2023/01/29 06:19:21;;;;;;;10.10;5.60;;;24.20;99.90;;;;;;5011565;28;20396;-66
2023/01/29 06:21:48;;;;;;;9.55;4.95;;;24.10;99.90;;;;;;5014054;28;20022;-66
2023/01/29 06:24:16;;;;;;;10.40;5.28;;;24.20;99.90;;;;;;5030073;28;20739;-66
2023/01/29 06:26:43;;;;;;;11.98;5.55;;;24.20;99.90;;;;;;5031541;28;20026;-67
2023/01/29 06:29:10;;;;;;;13.15;6.70;;;24.10;99.90;;;;;;5014034;28;20025;-66
2023/01/29 06:31:38;;;;;;;15.23;6.32;;;24.00;99.90;;;;;;5011772;28;20030;-67
2023/01/29 06:34:06;;;;;;;9.50;5.25;;;24.00;99.90;;;;;;5022664;28;20156;-67
2023/01/29 06:36:33;;;;;;;12.20;5.68;;;24.00;99.90;;;;;;5011388;28;20032;-66
2023/01/29 06:39:01;;;;;;;8.57;4.50;;;24.00;99.90;;;;;;4993408;28;20022;-66
2023/01/29 06:41:28;;;;;;;8.00;4.20;;;23.90;99.90;;;;;;5011171;28;20101;-67
2023/01/29 06:43:55;;;;;;;7.40;4.20;;;23.90;99.90;;;;;;4995836;28;20041;-67
2023/01/29 06:46:23;;;;;;;12.73;3.88;;;23.80;99.90;;;;;;5029731;28;20111;-66
2023/01/29 06:48:50;;;;;;;11.30;4.18;;;23.80;99.90;;;;;;5030486;28;20022;-66
2023/01/29 06:51:17;;;;;;;11.93;4.45;;;23.80;99.90;;;;;;5012953;28;20116;-66
2023/01/29 06:53:45;;;;;;;11.15;4.85;;;23.70;99.90;;;;;;5025805;28;20099;-67
2023/01/29 06:56:12;;;;;;;6.82;3.88;;;23.60;99.90;;;;;;5011441;28;20030;-66
2023/01/29 06:58:40;;;;;;;6.40;3.70;;;23.50;99.90;;;;;;5011181;28;20030;-65
2023/01/29 07:01:10;;;;;;;8.00;4.53;;;23.40;99.90;;;;;;5012404;28;20026;-65
2023/01/29 07:03:37;;;;;;;9.55;3.50;;;23.30;99.90;;;;;;5030430;28;20029;-65
2023/01/29 07:06:05;;;;;;;11.63;4.40;;;23.30;99.90;;;;;;5020312;28;20109;-66
2023/01/29 07:08:36;;;;;;;7.30;3.78;;;23.20;99.90;;;;;;5010612;28;20036;-66
2023/01/29 07:11:04;;;;;;;7.78;3.72;;;23.20;99.90;;;;;;5027083;28;20953;-65
2023/01/29 07:13:32;;;;;;;9.85;4.40;;;23.20;99.90;;;;;;5028127;28;20072;-65
2023/01/29 07:16:00;;;;;;;8.07;4.03;;;23.30;99.90;;;;;;5030482;28;20577;-66
2023/01/29 07:18:29;;;;;;;6.82;3.95;;;23.30;99.90;;;;;;5024136;28;20026;-66
2023/01/29 07:20:57;;;;;;;9.90;4.22;;;23.30;99.90;;;;;;5010448;28;20034;-65
2023/01/29 07:23:24;;;;;;;7.03;3.58;;;23.30;99.90;;;;;;5010546;28;20022;-66
2023/01/29 07:25:52;;;;;;;5.80;3.72;;;23.30;99.90;;;;;;5010365;28;20121;-65
2023/01/29 07:28:20;;;;;;;5.15;3.33;;;23.40;99.90;;;;;;5010408;28;20469;-66
2023/01/29 07:30:47;;;;;;;6.65;3.60;;;23.40;99.90;;;;;;4989856;28;20033;-66
2023/01/29 07:33:15;;;;;;;4.85;3.28;;;23.40;99.90;;;;;;5015418;28;20107;-66
2023/01/29 07:35:43;;;;;;;6.55;3.28;;;23.40;99.90;;;;;;5013071;28;20045;-65
2023/01/29 07:38:11;;;;;;;6.03;3.47;;;23.40;99.90;;;;;;5010460;28;20137;-65
2023/01/29 07:40:39;;;;;;;8.45;2.92;;;23.40;99.90;;;;;;5008046;28;20049;-64
2023/01/29 07:43:08;;;;;;;8.98;3.38;;;23.40;99.90;;;;;;5021078;28;20033;-65
2023/01/29 07:45:38;;;;;;;6.65;3.42;;;23.40;99.90;;;;;;5026364;28;20034;-65
2023/01/29 07:48:06;;;;;;;5.90;3.20;;;23.40;99.90;;;;;;5026514;28;20040;-65
2023/01/29 07:50:34;;;;;;;10.75;3.10;;;23.40;99.90;;;;;;5021832;28;20510;-65
2023/01/29 07:53:02;;;;;;;5.20;3.88;;;23.40;99.90;;;;;;4993214;28;20491;-65
2023/01/29 07:55:30;;;;;;;4.90;3.35;;;23.50;99.90;;;;;;5012265;28;20037;-66
2023/01/29 07:57:59;;;;;;;4.40;3.15;;;23.50;99.90;;;;;;5018419;28;20092;-66
2023/01/29 08:00:27;;;;;;;8.30;4.00;;;23.50;99.90;;;;;;5019178;28;20045;-66
2023/01/29 08:03:00;;;;;;;6.93;3.75;;;23.60;99.90;;;;;;5021359;28;20426;-65
2023/01/29 08:05:28;;;;;;;5.05;3.28;;;23.60;99.90;;;;;;5010661;28;20486;-65
2023/01/29 08:07:55;;;;;;;8.63;3.80;;;23.60;99.90;;;;;;5008940;28;20033;-65
2023/01/29 08:10:23;;;;;;;5.10;3.30;;;23.60;99.90;;;;;;5009702;28;20437;-65
2023/01/29 08:13:08;;;;;;;7.80;3.72;;;23.60;99.90;;;;;;5007817;28;20113;-65
2023/01/29 08:15:36;;;;;;;5.43;4.40;;;23.50;99.90;;;;;;5006082;28;20026;-64
2023/01/29 08:18:04;;;;;;;5.82;3.63;;;23.60;99.90;;;;;;5009316;28;20021;-65
2023/01/29 08:20:32;;;;;;;5.15;3.40;;;23.50;99.90;;;;;;5007612;28;20038;-65
2023/01/29 08:23:14;;;;;;;6.68;3.08;;;23.50;99.90;;;;;;5006356;28;20037;-65
2023/01/29 08:25:41;;;;;;;5.35;3.30;;;23.50;99.90;;;;;;4981152;28;20165;-65
2023/01/29 08:28:10;;;;;;;7.82;4.32;;;23.50;99.90;;;;;;4987616;28;20033;-66
2023/01/29 08:30:38;;;;;;;5.65;3.10;;;23.50;99.90;;;;;;5009203;28;20041;-64
2023/01/29 08:33:05;;;;;;;6.15;4.47;;;23.50;99.90;;;;;;5026087;28;20018;-64
2023/01/29 08:35:33;;;;;;;8.75;3.45;;;23.50;99.90;;;;;;5007289;28;20041;-65
2023/01/29 08:38:02;;;;;;;6.95;3.78;;;23.50;99.90;;;;;;5006625;28;20054;-64
2023/01/29 08:40:31;;;;;;;8.05;3.53;;;23.50;99.90;;;;;;4989004;28;20038;-65
2023/01/29 08:43:04;;;;;;;5.13;3.63;;;23.50;99.90;;;;;;5000616;28;20029;-65
2023/01/29 08:45:34;;;;;;;19.52;10.77;;;23.50;99.90;;;;;;4997827;28;20684;-65
2023/01/29 08:48:02;;;;;;;17.63;10.15;;;23.40;99.90;;;;;;5012537;28;20021;-64
2023/01/29 08:50:30;;;;;;;16.65;10.02;;;23.40;99.90;;;;;;5028621;28;20029;-67
2023/01/29 08:52:59;;;;;;;9.70;7.00;;;23.50;99.90;;;;;;5005923;28;20025;-67
2023/01/29 08:55:28;;;;;;;7.72;5.43;;;23.40;99.90;;;;;;5010203;28;20036;-67
2023/01/29 08:57:58;;;;;;;7.03;4.63;;;23.40;99.90;;;;;;5010678;28;20022;-66
2023/01/29 09:00:25;;;;;;;7.35;5.30;;;23.40;99.90;;;;;;5010664;28;20068;-66
2023/01/29 09:02:53;;;;;;;7.53;4.90;;;23.40;99.90;;;;;;5010839;28;20434;-66
2023/01/29 09:05:20;;;;;;;8.57;5.07;;;23.30;99.90;;;;;;4992589;28;20033;-67
2023/01/29 09:07:47;;;;;;;10.05;4.60;;;23.40;99.90;;;;;;5009359;28;20029;-67
2023/01/29 09:10:15;;;;;;;7.55;4.32;;;23.30;99.90;;;;;;5010186;28;20096;-67
2023/01/29 09:12:43;;;;;;;10.55;4.18;;;23.30;99.90;;;;;;5010925;28;20149;-67
2023/01/29 09:15:11;;;;;;;6.25;3.55;;;23.30;99.90;;;;;;5010752;28;20032;-66
2023/01/29 09:17:38;;;;;;;5.72;3.88;;;23.30;99.90;;;;;;5010155;28;20417;-70
2023/01/29 09:20:06;;;;;;;5.78;3.65;;;23.30;99.90;;;;;;5012499;28;20113;-75
2023/01/29 09:22:34;;;;;;;6.93;4.03;;;23.30;99.90;;;;;;5015040;28;20025;-73
2023/01/29 09:25:02;;;;;;;7.70;3.58;;;23.20;99.90;;;;;;5010682;28;20344;-75
2023/01/29 09:27:29;;;;;;;6.57;3.67;;;23.20;99.90;;;;;;5021818;28;20037;-76
2023/01/29 09:29:57;;;;;;;6.03;3.90;;;23.20;99.90;;;;;;4990856;28;20133;-69
2023/01/29 09:32:24;;;;;;;9.65;5.05;;;23.20;99.90;;;;;;5004800;28;20030;-70
2023/01/29 09:34:51;;;;;;;5.95;3.90;;;23.10;99.90;;;;;;5010535;28;20044;-71
2023/01/29 09:37:21;;;;;;;7.80;4.32;;;23.20;99.90;;;;;;5011247;28;20037;-71
2023/01/29 09:39:49;;;;;;;8.45;4.32;;;23.10;99.90;;;;;;5012385;28;20032;-76
2023/01/29 09:42:23;;;;;;;5.60;3.65;;;23.10;99.90;;;;;;5024168;28;20030;-75
2023/01/29 09:45:05;;;;;;;5.85;3.63;;;23.10;99.90;;;;;;5014645;28;20030;-73
2023/01/29 09:47:35;;;;;;;5.63;3.42;;;23.00;99.90;;;;;;4992106;28;20030;-77
2023/01/29 09:50:22;;;;;;;7.20;3.60;;;23.10;99.90;;;;;;4991877;28;20029;-74
2023/01/29 09:53:04;;;;;;;3.88;2.40;;;23.00;99.90;;;;;;5013353;28;20057;-75
2023/01/29 09:55:50;;;;;;;5.45;2.72;;;23.10;99.90;;;;;;5005047;28;20029;-75
2023/01/29 09:58:35;;;;;;;8.82;2.53;;;23.00;99.90;;;;;;4992565;28;20117;-77
2023/01/29 10:01:24;;;;;;;7.05;2.50;;;23.00;99.90;;;;;;4993114;28;20045;-77
2023/01/29 10:04:09;;;;;;;6.85;2.70;;;23.00;99.90;;;;;;5016921;28;20136;-78
2023/01/29 10:06:50;;;;;;;4.72;3.00;;;23.00;99.90;;;;;;5029196;28;20025;-74
2023/01/29 10:09:54;;;;;;;4.35;2.88;;;23.00;99.90;;;;;;5028643;28;20811;-74
2023/01/29 10:12:38;;;;;;;4.07;2.85;;;23.00;99.90;;;;;;5027253;28;20033;-78
2023/01/29 10:15:24;;;;;;;4.88;3.00;;;23.00;99.90;;;;;;5029338;28;20198;-77
2023/01/29 10:18:13;;;;;;;6.75;2.35;;;23.00;99.90;;;;;;5010738;28;20059;-71
2023/01/29 10:20:46;;;;;;;5.68;1.90;;;23.00;99.90;;;;;;5028992;28;20047;-72
2023/01/29 10:23:26;;;;;;;7.68;3.20;;;23.00;99.90;;;;;;5002827;28;20124;-73
2023/01/29 10:25:54;;;;;;;8.75;4.32;;;22.90;99.90;;;;;;5009151;28;20509;-72
2023/01/29 10:28:33;;;;;;;6.70;3.55;;;23.00;99.90;;;;;;5008917;28;20113;-71
2023/01/29 10:31:07;;;;;;;6.25;2.88;;;22.90;99.90;;;;;;5008912;28;20061;-71
2023/01/29 10:33:45;;;;;;;;;;;22.90;99.90;;;;;;5009887;28;20655;-71
2023/01/29 10:36:28;;;;;;;9.40;2.65;;;22.90;99.90;;;;;;5009496;28;19905;-71
2023/01/29 10:38:55;;;;;;;3.90;2.47;;;22.90;99.90;;;;;;4991745;28;20041;-71
2023/01/29 10:41:47;;;;;;;5.72;2.35;;;22.80;99.90;;;;;;5013017;28;20029;-68
2023/01/29 10:44:22;;;;;;;3.20;2.25;;;22.80;99.90;;;;;;5013955;28;20029;-69
2023/01/29 10:47:31;;;;;;;3.92;2.10;;;22.70;99.90;;;;;;5005441;28;20029;-72
2023/01/29 10:50:05;;;;;;;5.32;2.40;;;22.70;99.90;;;;;;5006386;28;20029;-70
2023/01/29 10:52:32;;;;;;;;;;;22.70;99.90;;;;;;5007650;28;20057;-70
2023/01/29 10:55:14;;;;;;;4.25;2.13;;;22.60;99.90;;;;;;5013312;28;19932;-70
2023/01/29 10:58:03;;;;;;;3.22;2.28;;;22.60;99.90;;;;;;5001191;28;20420;-71
2023/01/29 11:00:38;;;;;;;4.13;2.60;;;22.60;99.90;;;;;;5008911;28;20155;-69
2023/01/29 11:03:34;;;;;;;4.97;2.38;;;22.50;99.90;;;;;;5001749;28;20085;-69
2023/01/29 11:06:19;;;;;;;4.82;2.72;;;22.50;99.90;;;;;;4975854;28;20038;-68
2023/01/29 11:09:07;;;;;;;4.30;2.72;;;22.50;99.90;;;;;;5008246;28;20034;-69
2023/01/29 11:11:49;;;;;;;5.05;2.45;;;22.50;99.90;;;;;;5024937;28;20126;-69
2023/01/29 11:14:28;;;;;;;5.50;2.72;;;22.50;99.90;;;;;;5008822;28;20053;-69
2023/01/29 11:16:55;;;;;;;5.35;2.47;;;22.50;99.90;;;;;;5018542;28;20049;-69
2023/01/29 11:19:42;;;;;;;5.38;2.60;;;22.50;99.90;;;;;;5000630;28;20042;-68
2023/01/29 11:22:18;;;;;;;3.90;2.55;;;22.50;99.90;;;;;;4987805;28;20076;-69
2023/01/29 11:25:06;;;;;;;5.00;3.22;;;22.50;99.90;;;;;;5006848;28;20045;-68
2023/01/29 11:27:36;;;;;;;5.90;2.53;;;22.50;99.90;;;;;;4989772;28;20032;-68
2023/01/29 11:30:03;;;;;;;3.25;2.45;;;22.40;99.90;;;;;;5007012;28;20112;-68
2023/01/29 11:32:34;;;;;;;4.18;2.38;;;22.40;99.90;;;;;;4989838;28;20036;-68
2023/01/29 11:35:05;;;;;;;3.83;2.53;;;22.40;99.90;;;;;;5007932;28;20390;-69
2023/01/29 11:37:38;;;;;;;4.80;2.67;;;22.40;99.90;;;;;;4991379;28;20033;-70
2023/01/29 11:40:23;;;;;;;4.30;2.53;;;22.50;99.90;;;;;;4988895;28;20161;-69
2023/01/29 11:42:52;;;;;;;3.90;2.67;;;22.40;99.90;;;;;;4991925;28;20085;-69
2023/01/29 11:45:32;;;;;;;5.43;2.70;;;22.40;99.90;;;;;;5008403;28;20030;-68
2023/01/29 11:48:00;;;;;;;4.43;2.97;;;22.40;99.90;;;;;;5007487;28;20548;-68
2023/01/29 11:50:33;;;;;;;4.72;2.92;;;22.40;99.90;;;;;;5009596;28;20096;-68
2023/01/29 11:53:00;;;;;;;5.70;3.22;;;22.40;99.90;;;;;;5014726;28;20017;-69
2023/01/29 11:55:37;;;;;;;4.88;3.20;;;22.40;99.90;;;;;;4989415;28;20041;-69
2023/01/29 11:58:19;;;;;;;6.65;3.38;;;22.30;99.90;;;;;;5010147;28;20025;-69
2023/01/29 12:00:50;;;;;;;4.78;2.63;;;22.40;99.90;;;;;;4996812;28;20034;-66
2023/01/29 12:03:29;;;;;;;4.82;2.50;;;22.30;99.90;;;;;;4993460;28;20391;-69
2023/01/29 12:06:17;;;;;;;7.55;2.95;;;22.30;99.90;;;;;;4992068;28;20111;-69
2023/01/29 12:08:52;;;;;;;8.05;3.38;;;22.30;99.90;;;;;;4992258;28;20029;-69
2023/01/29 12:11:31;;;;;;;4.50;2.60;;;22.30;99.90;;;;;;5005229;28;20033;-69
2023/01/29 12:14:05;;;;;;;5.25;2.88;;;22.30;99.90;;;;;;5011539;28;20119;-69
2023/01/29 12:16:56;;;;;;;3.50;2.25;;;22.30;99.90;;;;;;5011816;28;20548;-69
2023/01/29 12:19:23;;;;;;;3.03;2.00;;;22.30;99.90;;;;;;5029176;28;20043;-70
2023/01/29 12:22:08;;;;;;;3.55;2.00;;;22.30;99.90;;;;;;5010128;28;20532;-68
2023/01/29 12:24:40;;;;;;;3.35;2.13;;;22.20;99.90;;;;;;5013724;28;20111;-69
2023/01/29 12:27:32;;;;;;;3.65;2.17;;;22.20;99.90;;;;;;5013931;28;20026;-69
2023/01/29 12:30:14;;;;;;;7.00;2.30;;;22.20;99.90;;;;;;5015538;28;20018;-69
2023/01/29 12:32:56;;;;;;;4.32;2.70;;;22.20;99.90;;;;;;5034022;28;20033;-69
2023/01/29 12:35:47;;;;;;;7.03;3.67;;;22.20;99.90;;;;;;5033291;28;20067;-69
2023/01/29 12:38:23;;;;;;;10.35;3.90;;;22.20;99.90;;;;;;5028920;28;20050;-69
2023/01/29 12:40:57;;;;;;;11.35;4.32;;;22.20;99.90;;;;;;5001822;28;20133;-69
2023/01/29 12:43:29;;;;;;;;;;;22.10;99.90;;;;;;5013842;28;20505;-69
2023/01/29 12:45:59;;;;;;;10.40;3.92;;;22.10;99.90;;;;;;5016949;28;19914;-68
2023/01/29 12:48:37;;;;;;;7.35;3.28;;;22.10;99.90;;;;;;5013478;28;20037;-68
2023/01/29 12:51:30;;;;;;;6.18;2.88;;;22.20;99.90;;;;;;5030217;28;20637;-69
2023/01/29 12:54:08;;;;;;;5.15;2.90;;;22.10;99.90;;;;;;5002629;28;20026;-69
2023/01/29 12:56:42;;;;;;;6.05;2.70;;;22.10;99.90;;;;;;5013354;28;20109;-69
2023/01/29 12:59:20;;;;;;;3.75;2.80;;;22.10;99.90;;;;;;5012919;28;20526;-69
2023/01/29 13:02:01;;;;;;;5.45;2.40;;;22.10;99.90;;;;;;5014250;28;20137;-69
2023/01/29 13:05:21;;;;;;;4.80;2.70;;;22.10;99.90;;;;;;4995318;28;20037;-68
2023/01/29 13:07:54;;;;;;;4.80;2.20;;;22.10;99.90;;;;;;4986314;28;20471;-69
2023/01/29 13:10:27;;;;;;;6.38;2.92;;;22.10;99.90;;;;;;5019648;28;20099;-69
2023/01/29 13:13:10;;;;;;;7.63;2.78;;;22.10;99.90;;;;;;5031845;28;20053;-69
2023/01/29 13:15:41;;;;;;;4.45;2.50;;;22.20;99.90;;;;;;5016033;28;20034;-69
2023/01/29 13:18:29;;;;;;;9.55;2.47;;;22.20;99.90;;;;;;4994453;28;20034;-69
2023/01/29 13:20:58;;;;;;;3.55;2.60;;;22.20;99.90;;;;;;5011333;28;20483;-68
2023/01/29 13:23:36;;;;;;;4.40;2.25;;;22.20;99.90;;;;;;4994102;28;20029;-69
2023/01/29 13:26:05;;;;;;;5.93;2.65;;;22.20;99.90;;;;;;5015156;28;20057;-69
2023/01/29 13:28:32;;;;;;;3.60;2.20;;;22.20;99.90;;;;;;5009456;28;20479;-69
2023/01/29 13:31:18;;;;;;;3.58;2.25;;;22.20;99.90;;;;;;5023537;28;20028;-69
2023/01/29 13:33:55;;;;;;;8.73;3.85;;;22.10;99.90;;;;;;5014609;28;20636;-68
2023/01/29 13:36:27;;;;;;;4.00;2.40;;;22.10;99.90;;;;;;5011684;28;20036;-68
2023/01/29 13:39:26;;;;;;;4.28;2.53;;;22.10;99.90;;;;;;5003071;28;20057;-69
2023/01/29 13:41:55;;;;;;;3.67;2.28;;;22.10;99.90;;;;;;5005707;28;20026;-68
2023/01/29 13:44:27;;;;;;;4.35;2.45;;;22.10;99.90;;;;;;5009568;28;20083;-69
2023/01/29 13:47:03;;;;;;;4.07;2.50;;;22.10;99.90;;;;;;5031444;28;20386;-69
2023/01/29 13:49:42;;;;;;;4.20;2.63;;;22.10;99.90;;;;;;5029281;28;20085;-69
2023/01/29 13:52:16;;;;;;;7.78;2.80;;;22.10;99.90;;;;;;5014479;28;20120;-69